Soaring Guidance
Issued by NWS Reno, NV

Home | Current Version | Previous Version | Text Only | Print | Product List | Glossary On
Versions: 1 2 3 4 5 6 7 8 9 10 11 12 13 14
000
UXUS97 KREV 031346
SRGREV

SOARING FORECAST
NATIONAL WEATHER SERVICE - RENO NV
700 AM PDT TUE MAY 3 2016

THIS SOARING FORECAST IS FOR THE EASTERN SIERRA AND WESTERN NEVADA
WITH SPECIFIC INDICES FOR THE GREATER RENO AREA.

THIS FORECAST IS PREPARED DAILY BY 700 AM AND IS NOT UPDATED.

FOR CURRENT FLIGHT CONDITIONS...FORECASTS...AND ADVISORIES...ACCESS
YOUR LOCAL BRIEFING OUTLET OR FLIGHT SERVICE STATION.

*******************************************************************
FORECASTED LOCAL INDICES FOR RENO:        TODAY     YESTERDAY
FORECASTED MAX TEMP AT RENO (DEG F).....     75          71
FORECASTED TRIGGER TEMPERATURE (DEG F)..     63          57
   EXCEEDED YESTERDAY BY 955 AM PDT
FORECASTED MAXIMUM ALTITUDE (FT MSL)....  16300       16900
FORECASTED SOARING INDEX (FPM)..........   1029        1047
FORECASTED K-INDEX.........VALID 18Z....     21          24
FORECASTED K-INDEX.........VALID 00Z....     25          26
FORECASTED LIFTED INDEX....VALID 18Z....      4           3
FORECASTED LIFTED INDEX....VALID 00Z....      3           2

AFTERNOON WINDS ALOFT FORECAST
MSL (FT) WIND/TEMP
9000  1711/+08
10000 1612/+05
12000 1613/-01
14000 1614/-05
16000 1716/-10
18000 1821/-15
24000 1829/-25
30000 2040/-41
34000 2150/-52
39000 2255/-63

SLIDE MOUNTAIN DATA:
     DATE       TIME     TEMP  DEWPT   RH         WIND (MPH)
                        (F)   (F)           | DIR  SPEED GUST
2016-05-03    05:50      36    25     68    | 166   13   17
2016-05-03    05:30      36    25     68    | 154   17   20
2016-05-03    05:20      36    25     68    | 153   16   19
2016-05-03    05:00      36    24     67    | 152   18   20

RENO TAF FORECAST:
KRNO 031135Z 0312/0412 VRB03KT P6SM FEW100 SCT200
     FM031800 17009KT P6SM FEW100 BKN200
     FM040000 25012KT P6SM BKN100 OVC200
     FM040500 VRB03KT P6SM SCT100 OVC160

CARSON CITY TAF FORECAST:
KCXP 031135Z 0312/0412 00000KT P6SM SCT200
     FM031800 11009KT P6SM SCT090 BKN200
     FM040300 VRB03KT P6SM FEW090 OVC150

OUTLOOK FOR THE RENO-CARSON CITY-MINDEN AREA:
.WEDNESDAY...CLOUDY. ISOLATED SHOWERS IN THE MORNING...THEN
CHANCE OF SHOWERS AND THUNDERSTORMS IN THE AFTERNOON. HIGHS 66 TO
71. LIGHT WINDS BECOMING SOUTH AROUND 10 MPH IN THE AFTERNOON.

SUNRISE AND SUNSET
MAY  3 2016...........SUNRISE   557 AM PDT   SUNSET   755 PM PDT
MAY  4 2016...........SUNRISE   556 AM PDT   SUNSET   756 PM PDT


USA.gov is the U.S. government's official web portal to all federal, state and local government web resources and services.